< < Back
Terminal Aerodrome Forecast


Current Version              Previous Versions:   1  2  3  4  5  6  7  8  9  

Terminal Aerodrome Forecast

925
FTUS44 KMOB 111739
TAFPNS
TAF
KPNS 111739Z 1118/1218 22012G20KT P6SM SKC
     FM120100 22010KT P6SM SCT250
     FM120700 24008KT 3SM BR SCT010 BKN015
     FM121500 27012KT P6SM FEW015 SCT250=

Latest METAR

600
SAUS70 KWBC 120900 RRK
MTRPNS
METAR KPNS 120853Z AUTO 25012KT 10SM CLR 16/13 A3015 RMK AO2 SLP213
T01560133 58004 TSNO


USA.gov is the U.S. government's official web portal to all federal, state and local government web resources and services.